sensor_id;sensor_type;location;lat;lon;timestamp;P1;durP1;ratioP1;P2;durP2;ratioP2
31724;SDS011;18306;40.960;14.836;2023-04-01T00:01:22;8.18;;;3.00;;
31724;SDS011;18306;40.960;14.836;2023-04-01T00:03:49;12.88;;;2.35;;
31724;SDS011;18306;40.960;14.836;2023-04-01T00:06:17;4.50;;;2.53;;
31724;SDS011;18306;40.960;14.836;2023-04-01T00:08:45;6.45;;;2.30;;
31724;SDS011;18306;40.960;14.836;2023-04-01T00:11:12;3.28;;;2.40;;
31724;SDS011;18306;40.960;14.836;2023-04-01T00:13:41;6.07;;;2.75;;
31724;SDS011;18306;40.960;14.836;2023-04-01T00:16:09;6.93;;;2.22;;
31724;SDS011;18306;40.960;14.836;2023-04-01T00:18:36;5.10;;;1.90;;
31724;SDS011;18306;40.960;14.836;2023-04-01T00:21:03;15.25;;;3.08;;
31724;SDS011;18306;40.960;14.836;2023-04-01T00:23:30;9.48;;;2.75;;
31724;SDS011;18306;40.960;14.836;2023-04-01T00:25:59;7.70;;;2.60;;
31724;SDS011;18306;40.960;14.836;2023-04-01T00:28:27;7.75;;;2.65;;
31724;SDS011;18306;40.960;14.836;2023-04-01T00:30:55;5.82;;;2.58;;
31724;SDS011;18306;40.960;14.836;2023-04-01T00:33:22;7.82;;;2.22;;
31724;SDS011;18306;40.960;14.836;2023-04-01T00:35:48;7.72;;;2.33;;
31724;SDS011;18306;40.960;14.836;2023-04-01T00:38:16;5.53;;;2.97;;
31724;SDS011;18306;40.960;14.836;2023-04-01T00:40:44;6.80;;;2.40;;
31724;SDS011;18306;40.960;14.836;2023-04-01T00:43:13;9.15;;;2.55;;
31724;SDS011;18306;40.960;14.836;2023-04-01T00:45:47;5.28;;;2.42;;
31724;SDS011;18306;40.960;14.836;2023-04-01T00:50:50;8.30;;;2.67;;
31724;SDS011;18306;40.960;14.836;2023-04-01T00:53:24;8.38;;;2.58;;
31724;SDS011;18306;40.960;14.836;2023-04-01T00:56:02;8.02;;;2.33;;
31724;SDS011;18306;40.960;14.836;2023-04-01T00:58:35;5.55;;;2.05;;
31724;SDS011;18306;40.960;14.836;2023-04-01T01:01:06;3.17;;;2.50;;
31724;SDS011;18306;40.960;14.836;2023-04-01T01:03:35;5.43;;;1.92;;
31724;SDS011;18306;40.960;14.836;2023-04-01T01:17:18;5.22;;;1.60;;
31724;SDS011;18306;40.960;14.836;2023-04-01T01:34:29;4.72;;;2.10;;
31724;SDS011;18306;40.960;14.836;2023-04-01T01:39:44;3.00;;;1.67;;
31724;SDS011;18306;40.960;14.836;2023-04-01T01:42:18;3.42;;;2.22;;
31724;SDS011;18306;40.960;14.836;2023-04-01T01:44:47;5.03;;;1.70;;
31724;SDS011;18306;40.960;14.836;2023-04-01T01:47:17;9.75;;;2.67;;
31724;SDS011;18306;40.960;14.836;2023-04-01T01:49:47;7.30;;;2.42;;
31724;SDS011;18306;40.960;14.836;2023-04-01T01:52:18;4.97;;;1.73;;
31724;SDS011;18306;40.960;14.836;2023-04-01T01:54:49;8.63;;;1.98;;
31724;SDS011;18306;40.960;14.836;2023-04-01T01:57:22;6.20;;;2.58;;
31724;SDS011;18306;40.960;14.836;2023-04-01T01:59:54;1.80;;;1.25;;
31724;SDS011;18306;40.960;14.836;2023-04-01T02:02:28;3.65;;;2.58;;
31724;SDS011;18306;40.960;14.836;2023-04-01T02:04:57;3.65;;;1.88;;
31724;SDS011;18306;40.960;14.836;2023-04-01T02:07:31;9.18;;;1.80;;
31724;SDS011;18306;40.960;14.836;2023-04-01T02:10:02;15.93;;;2.55;;
31724;SDS011;18306;40.960;14.836;2023-04-01T02:12:38;5.70;;;2.08;;
31724;SDS011;18306;40.960;14.836;2023-04-01T02:15:10;3.17;;;2.10;;
31724;SDS011;18306;40.960;14.836;2023-04-01T02:17:45;2.83;;;1.80;;
31724;SDS011;18306;40.960;14.836;2023-04-01T02:20:18;2.22;;;1.58;;
31724;SDS011;18306;40.960;14.836;2023-04-01T02:22:51;3.92;;;1.98;;
31724;SDS011;18306;40.960;14.836;2023-04-01T02:25:30;11.88;;;2.40;;
31724;SDS011;18306;40.960;14.836;2023-04-01T02:28:02;5.75;;;1.70;;
31724;SDS011;18306;40.960;14.836;2023-04-01T02:30:33;5.72;;;2.50;;
31724;SDS011;18306;40.960;14.836;2023-04-01T02:33:04;7.97;;;1.83;;
31724;SDS011;18306;40.960;14.836;2023-04-01T02:35:33;9.82;;;2.55;;
31724;SDS011;18306;40.960;14.836;2023-04-01T02:38:03;7.55;;;2.30;;
31724;SDS011;18306;40.960;14.836;2023-04-01T02:40:42;13.32;;;2.08;;
31724;SDS011;18306;40.960;14.836;2023-04-01T02:43:12;4.65;;;2.25;;
31724;SDS011;18306;40.960;14.836;2023-04-01T02:45:40;4.85;;;1.63;;
31724;SDS011;18306;40.960;14.836;2023-04-01T02:48:08;13.10;;;2.15;;
31724;SDS011;18306;40.960;14.836;2023-04-01T02:50:37;9.82;;;2.30;;
31724;SDS011;18306;40.960;14.836;2023-04-01T02:53:03;6.97;;;1.92;;
31724;SDS011;18306;40.960;14.836;2023-04-01T02:55:33;4.90;;;2.67;;
31724;SDS011;18306;40.960;14.836;2023-04-01T02:58:01;4.53;;;1.67;;
31724;SDS011;18306;40.960;14.836;2023-04-01T03:00:36;4.30;;;2.08;;
31724;SDS011;18306;40.960;14.836;2023-04-01T03:03:03;4.93;;;2.10;;
31724;SDS011;18306;40.960;14.836;2023-04-01T03:05:32;9.27;;;2.42;;
31724;SDS011;18306;40.960;14.836;2023-04-01T03:07:59;10.50;;;2.47;;
31724;SDS011;18306;40.960;14.836;2023-04-01T03:10:27;8.15;;;2.20;;
31724;SDS011;18306;40.960;14.836;2023-04-01T03:12:54;3.63;;;1.88;;
31724;SDS011;18306;40.960;14.836;2023-04-01T03:15:21;4.95;;;2.20;;
31724;SDS011;18306;40.960;14.836;2023-04-01T03:17:51;4.70;;;1.70;;
31724;SDS011;18306;40.960;14.836;2023-04-01T03:20:17;5.07;;;2.10;;
31724;SDS011;18306;40.960;14.836;2023-04-01T03:22:46;7.30;;;2.70;;
31724;SDS011;18306;40.960;14.836;2023-04-01T03:25:14;11.23;;;2.63;;
31724;SDS011;18306;40.960;14.836;2023-04-01T03:27:41;13.15;;;2.67;;
31724;SDS011;18306;40.960;14.836;2023-04-01T03:30:09;9.30;;;2.20;;
31724;SDS011;18306;40.960;14.836;2023-04-01T03:32:46;8.27;;;2.75;;
31724;SDS011;18306;40.960;14.836;2023-04-01T03:35:12;13.93;;;2.47;;
31724;SDS011;18306;40.960;14.836;2023-04-01T03:37:40;10.05;;;2.25;;
31724;SDS011;18306;40.960;14.836;2023-04-01T03:40:07;7.25;;;2.38;;
31724;SDS011;18306;40.960;14.836;2023-04-01T03:42:35;5.35;;;2.00;;
31724;SDS011;18306;40.960;14.836;2023-04-01T03:45:02;5.13;;;2.05;;
31724;SDS011;18306;40.960;14.836;2023-04-01T03:47:32;6.38;;;2.20;;
31724;SDS011;18306;40.960;14.836;2023-04-01T03:50:07;6.50;;;2.67;;
31724;SDS011;18306;40.960;14.836;2023-04-01T03:52:42;16.88;;;3.15;;
31724;SDS011;18306;40.960;14.836;2023-04-01T03:55:16;10.73;;;2.42;;
31724;SDS011;18306;40.960;14.836;2023-04-01T03:57:56;3.90;;;1.98;;
31724;SDS011;18306;40.960;14.836;2023-04-01T04:00:36;7.95;;;2.25;;
31724;SDS011;18306;40.960;14.836;2023-04-01T04:03:07;9.45;;;2.40;;
31724;SDS011;18306;40.960;14.836;2023-04-01T04:05:35;10.20;;;2.70;;
31724;SDS011;18306;40.960;14.836;2023-04-01T04:08:02;6.50;;;3.08;;
31724;SDS011;18306;40.960;14.836;2023-04-01T04:10:29;3.67;;;2.05;;
31724;SDS011;18306;40.960;14.836;2023-04-01T04:12:56;5.80;;;2.50;;
31724;SDS011;18306;40.960;14.836;2023-04-01T04:15:25;4.45;;;2.25;;
31724;SDS011;18306;40.960;14.836;2023-04-01T04:17:52;5.82;;;2.13;;
31724;SDS011;18306;40.960;14.836;2023-04-01T04:20:19;8.73;;;2.67;;
31724;SDS011;18306;40.960;14.836;2023-04-01T04:22:49;10.05;;;2.70;;
31724;SDS011;18306;40.960;14.836;2023-04-01T04:25:16;5.38;;;2.83;;
31724;SDS011;18306;40.960;14.836;2023-04-01T04:27:43;5.53;;;2.72;;
31724;SDS011;18306;40.960;14.836;2023-04-01T04:30:12;6.10;;;2.83;;
31724;SDS011;18306;40.960;14.836;2023-04-01T04:32:39;9.50;;;2.80;;
31724;SDS011;18306;40.960;14.836;2023-04-01T04:35:08;10.95;;;2.83;;
31724;SDS011;18306;40.960;14.836;2023-04-01T04:37:35;6.35;;;2.85;;
31724;SDS011;18306;40.960;14.836;2023-04-01T04:40:03;6.78;;;3.55;;
31724;SDS011;18306;40.960;14.836;2023-04-01T04:42:31;9.25;;;3.08;;
31724;SDS011;18306;40.960;14.836;2023-04-01T04:45:04;13.13;;;2.93;;
31724;SDS011;18306;40.960;14.836;2023-04-01T04:47:32;10.50;;;3.75;;
31724;SDS011;18306;40.960;14.836;2023-04-01T04:49:59;12.30;;;3.03;;
31724;SDS011;18306;40.960;14.836;2023-04-01T04:52:26;4.40;;;2.90;;
31724;SDS011;18306;40.960;14.836;2023-04-01T04:54:53;7.88;;;3.22;;
31724;SDS011;18306;40.960;14.836;2023-04-01T04:57:20;16.75;;;3.00;;
31724;SDS011;18306;40.960;14.836;2023-04-01T04:59:53;4.67;;;2.53;;
31724;SDS011;18306;40.960;14.836;2023-04-01T05:02:49;5.10;;;2.88;;
31724;SDS011;18306;40.960;14.836;2023-04-01T05:05:17;6.07;;;2.85;;
31724;SDS011;18306;40.960;14.836;2023-04-01T05:07:45;8.45;;;2.65;;
31724;SDS011;18306;40.960;14.836;2023-04-01T05:10:12;11.43;;;3.05;;
31724;SDS011;18306;40.960;14.836;2023-04-01T05:12:39;13.02;;;3.58;;
31724;SDS011;18306;40.960;14.836;2023-04-01T05:15:08;15.57;;;2.70;;
31724;SDS011;18306;40.960;14.836;2023-04-01T05:17:37;10.45;;;2.60;;
31724;SDS011;18306;40.960;14.836;2023-04-01T05:20:04;4.18;;;2.20;;
31724;SDS011;18306;40.960;14.836;2023-04-01T05:22:32;13.13;;;2.67;;
31724;SDS011;18306;40.960;14.836;2023-04-01T05:24:59;5.38;;;2.50;;
31724;SDS011;18306;40.960;14.836;2023-04-01T05:27:27;13.77;;;3.33;;
31724;SDS011;18306;40.960;14.836;2023-04-01T05:29:54;11.85;;;4.60;;
31724;SDS011;18306;40.960;14.836;2023-04-01T05:32:44;20.50;;;2.97;;
31724;SDS011;18306;40.960;14.836;2023-04-01T05:35:11;8.82;;;2.70;;
31724;SDS011;18306;40.960;14.836;2023-04-01T05:37:38;11.35;;;3.33;;
31724;SDS011;18306;40.960;14.836;2023-04-01T05:40:05;12.70;;;2.95;;
31724;SDS011;18306;40.960;14.836;2023-04-01T05:42:33;8.07;;;4.38;;
31724;SDS011;18306;40.960;14.836;2023-04-01T05:44:59;22.40;;;4.00;;
31724;SDS011;18306;40.960;14.836;2023-04-01T05:47:45;21.52;;;4.75;;
31724;SDS011;18306;40.960;14.836;2023-04-01T05:50:12;8.65;;;3.60;;
31724;SDS011;18306;40.960;14.836;2023-04-01T05:52:39;10.07;;;3.05;;
31724;SDS011;18306;40.960;14.836;2023-04-01T05:55:06;12.60;;;3.97;;
31724;SDS011;18306;40.960;14.836;2023-04-01T05:57:33;12.23;;;2.92;;
31724;SDS011;18306;40.960;14.836;2023-04-01T06:00:01;4.75;;;2.67;;
31724;SDS011;18306;40.960;14.836;2023-04-01T06:02:38;12.30;;;3.38;;
31724;SDS011;18306;40.960;14.836;2023-04-01T06:07:43;23.13;;;6.72;;
31724;SDS011;18306;40.960;14.836;2023-04-01T06:10:15;10.77;;;3.83;;
31724;SDS011;18306;40.960;14.836;2023-04-01T06:13:06;8.82;;;3.25;;
31724;SDS011;18306;40.960;14.836;2023-04-01T06:15:52;11.25;;;3.30;;
31724;SDS011;18306;40.960;14.836;2023-04-01T06:35:31;9.27;;;3.78;;
31724;SDS011;18306;40.960;14.836;2023-04-01T06:46:58;10.18;;;3.55;;
31724;SDS011;18306;40.960;14.836;2023-04-01T06:49:52;9.35;;;3.55;;
31724;SDS011;18306;40.960;14.836;2023-04-01T06:53:01;12.25;;;4.28;;
31724;SDS011;18306;40.960;14.836;2023-04-01T06:56:26;10.32;;;2.97;;
31724;SDS011;18306;40.960;14.836;2023-04-01T06:59:38;10.43;;;2.72;;
31724;SDS011;18306;40.960;14.836;2023-04-01T07:04:50;16.75;;;3.83;;
31724;SDS011;18306;40.960;14.836;2023-04-01T07:10:14;7.30;;;3.92;;
31724;SDS011;18306;40.960;14.836;2023-04-01T07:13:23;7.35;;;3.63;;
31724;SDS011;18306;40.960;14.836;2023-04-01T07:16:15;9.52;;;2.72;;
31724;SDS011;18306;40.960;14.836;2023-04-01T07:18:47;6.25;;;3.22;;
31724;SDS011;18306;40.960;14.836;2023-04-01T07:22:00;14.77;;;2.80;;
31724;SDS011;18306;40.960;14.836;2023-04-01T07:24:25;4.43;;;2.50;;
31724;SDS011;18306;40.960;14.836;2023-04-01T07:27:05;17.35;;;3.50;;
31724;SDS011;18306;40.960;14.836;2023-04-01T07:29:35;11.45;;;3.13;;
31724;SDS011;18306;40.960;14.836;2023-04-01T07:38:01;21.08;;;5.35;;
31724;SDS011;18306;40.960;14.836;2023-04-01T08:06:59;8.43;;;3.50;;
31724;SDS011;18306;40.960;14.836;2023-04-01T08:16:06;7.03;;;3.95;;
31724;SDS011;18306;40.960;14.836;2023-04-01T08:22:01;7.88;;;3.58;;
31724;SDS011;18306;40.960;14.836;2023-04-01T08:27:15;31.95;;;11.90;;
31724;SDS011;18306;40.960;14.836;2023-04-01T08:29:54;51.13;;;23.80;;
31724;SDS011;18306;40.960;14.836;2023-04-01T08:32:43;18.83;;;9.25;;
31724;SDS011;18306;40.960;14.836;2023-04-01T08:38:14;30.90;;;5.07;;
31724;SDS011;18306;40.960;14.836;2023-04-01T09:03:56;8.52;;;3.17;;
31724;SDS011;18306;40.960;14.836;2023-04-01T09:06:39;10.43;;;3.50;;
31724;SDS011;18306;40.960;14.836;2023-04-01T09:12:31;8.45;;;5.30;;
31724;SDS011;18306;40.960;14.836;2023-04-01T09:15:20;17.67;;;5.70;;
31724;SDS011;18306;40.960;14.836;2023-04-01T09:24:03;12.77;;;4.35;;
31724;SDS011;18306;40.960;14.836;2023-04-01T09:32:25;13.77;;;4.68;;
31724;SDS011;18306;40.960;14.836;2023-04-01T09:38:19;18.02;;;5.15;;
31724;SDS011;18306;40.960;14.836;2023-04-01T09:44:15;21.45;;;5.38;;
31724;SDS011;18306;40.960;14.836;2023-04-01T09:55:47;40.47;;;10.05;;
31724;SDS011;18306;40.960;14.836;2023-04-01T09:58:57;20.80;;;6.70;;
31724;SDS011;18306;40.960;14.836;2023-04-01T10:02:07;28.10;;;6.68;;
31724;SDS011;18306;40.960;14.836;2023-04-01T10:36:31;12.25;;;3.80;;
31724;SDS011;18306;40.960;14.836;2023-04-01T10:43:02;11.57;;;3.72;;
31724;SDS011;18306;40.960;14.836;2023-04-01T10:48:36;7.88;;;3.03;;
31724;SDS011;18306;40.960;14.836;2023-04-01T10:51:37;7.13;;;2.97;;
31724;SDS011;18306;40.960;14.836;2023-04-01T10:57:02;6.85;;;3.17;;
31724;SDS011;18306;40.960;14.836;2023-04-01T11:21:42;23.13;;;3.20;;
31724;SDS011;18306;40.960;14.836;2023-04-01T11:27:47;7.68;;;2.97;;
31724;SDS011;18306;40.960;14.836;2023-04-01T11:36:39;6.65;;;3.20;;
31724;SDS011;18306;40.960;14.836;2023-04-01T11:45:17;7.95;;;2.42;;
31724;SDS011;18306;40.960;14.836;2023-04-01T11:48:22;10.05;;;2.30;;
31724;SDS011;18306;40.960;14.836;2023-04-01T11:53:43;4.43;;;2.08;;
31724;SDS011;18306;40.960;14.836;2023-04-01T11:56:28;3.97;;;1.73;;
31724;SDS011;18306;40.960;14.836;2023-04-01T11:59:27;8.63;;;2.22;;
31724;SDS011;18306;40.960;14.836;2023-04-01T12:04:54;8.75;;;2.30;;
31724;SDS011;18306;40.960;14.836;2023-04-01T12:10:51;9.90;;;3.50;;
31724;SDS011;18306;40.960;14.836;2023-04-01T12:13:24;7.35;;;3.65;;
31724;SDS011;18306;40.960;14.836;2023-04-01T12:32:47;6.75;;;2.05;;
31724;SDS011;18306;40.960;14.836;2023-04-01T12:35:22;9.38;;;1.80;;
31724;SDS011;18306;40.960;14.836;2023-04-01T12:37:59;6.68;;;1.83;;
31724;SDS011;18306;40.960;14.836;2023-04-01T12:41:07;4.87;;;1.73;;
31724;SDS011;18306;40.960;14.836;2023-04-01T13:06:40;10.98;;;3.88;;
31724;SDS011;18306;40.960;14.836;2023-04-01T13:15:12;8.00;;;3.35;;
31724;SDS011;18306;40.960;14.836;2023-04-01T13:18:22;7.20;;;2.42;;
31724;SDS011;18306;40.960;14.836;2023-04-01T13:41:23;7.80;;;2.90;;
31724;SDS011;18306;40.960;14.836;2023-04-01T13:44:00;6.25;;;2.08;;
31724;SDS011;18306;40.960;14.836;2023-04-01T13:57:45;5.53;;;2.05;;
31724;SDS011;18306;40.960;14.836;2023-04-01T14:00:38;4.55;;;2.33;;
31724;SDS011;18306;40.960;14.836;2023-04-01T14:03:30;9.27;;;3.40;;
31724;SDS011;18306;40.960;14.836;2023-04-01T14:15:07;3.17;;;1.70;;
31724;SDS011;18306;40.960;14.836;2023-04-01T14:18:13;10.52;;;1.98;;
31724;SDS011;18306;40.960;14.836;2023-04-01T14:24:18;9.55;;;2.03;;
31724;SDS011;18306;40.960;14.836;2023-04-01T14:32:49;11.57;;;2.33;;
31724;SDS011;18306;40.960;14.836;2023-04-01T14:52:10;14.18;;;4.60;;
31724;SDS011;18306;40.960;14.836;2023-04-01T14:54:44;13.82;;;3.35;;
31724;SDS011;18306;40.960;14.836;2023-04-01T14:57:31;5.32;;;2.33;;
31724;SDS011;18306;40.960;14.836;2023-04-01T15:00:12;5.80;;;3.33;;
31724;SDS011;18306;40.960;14.836;2023-04-01T15:05:16;12.88;;;2.63;;
31724;SDS011;18306;40.960;14.836;2023-04-01T15:08:00;13.95;;;2.60;;
31724;SDS011;18306;40.960;14.836;2023-04-01T15:11:03;5.78;;;2.05;;
31724;SDS011;18306;40.960;14.836;2023-04-01T15:13:56;10.18;;;1.85;;
31724;SDS011;18306;40.960;14.836;2023-04-01T15:16:41;4.90;;;1.60;;
31724;SDS011;18306;40.960;14.836;2023-04-01T15:19:38;3.92;;;2.08;;
31724;SDS011;18306;40.960;14.836;2023-04-01T15:25:27;4.30;;;2.08;;
31724;SDS011;18306;40.960;14.836;2023-04-01T15:30:53;9.23;;;2.38;;
31724;SDS011;18306;40.960;14.836;2023-04-01T15:36:43;4.80;;;2.20;;
31724;SDS011;18306;40.960;14.836;2023-04-01T15:39:36;8.48;;;2.00;;
31724;SDS011;18306;40.960;14.836;2023-04-01T15:45:49;5.25;;;2.03;;
31724;SDS011;18306;40.960;14.836;2023-04-01T15:48:30;6.78;;;2.53;;
31724;SDS011;18306;40.960;14.836;2023-04-01T16:00:00;7.53;;;2.17;;
31724;SDS011;18306;40.960;14.836;2023-04-01T16:05:55;16.65;;;3.28;;
31724;SDS011;18306;40.960;14.836;2023-04-01T16:08:55;7.47;;;2.92;;
31724;SDS011;18306;40.960;14.836;2023-04-01T16:31:50;10.57;;;3.78;;
31724;SDS011;18306;40.960;14.836;2023-04-01T16:35:04;14.32;;;5.47;;
31724;SDS011;18306;40.960;14.836;2023-04-01T16:37:52;22.92;;;6.50;;
31724;SDS011;18306;40.960;14.836;2023-04-01T16:51:52;15.40;;;3.83;;
31724;SDS011;18306;40.960;14.836;2023-04-01T16:57:37;15.57;;;3.88;;
31724;SDS011;18306;40.960;14.836;2023-04-01T17:03:13;15.43;;;4.35;;
31724;SDS011;18306;40.960;14.836;2023-04-01T17:06:23;15.93;;;4.57;;
31724;SDS011;18306;40.960;14.836;2023-04-01T17:12:13;8.23;;;2.78;;
31724;SDS011;18306;40.960;14.836;2023-04-01T17:20:26;18.23;;;3.83;;
31724;SDS011;18306;40.960;14.836;2023-04-01T17:22:56;11.35;;;3.22;;
31724;SDS011;18306;40.960;14.836;2023-04-01T17:31:07;9.73;;;3.10;;
31724;SDS011;18306;40.960;14.836;2023-04-01T17:36:16;24.48;;;3.85;;
31724;SDS011;18306;40.960;14.836;2023-04-01T17:47:36;13.07;;;4.25;;
31724;SDS011;18306;40.960;14.836;2023-04-01T17:52:56;16.27;;;3.60;;
31724;SDS011;18306;40.960;14.836;2023-04-01T17:58:18;15.75;;;3.22;;
31724;SDS011;18306;40.960;14.836;2023-04-01T18:15:07;16.40;;;4.30;;
31724;SDS011;18306;40.960;14.836;2023-04-01T18:20:41;15.85;;;3.00;;
31724;SDS011;18306;40.960;14.836;2023-04-01T18:23:39;14.73;;;5.05;;
31724;SDS011;18306;40.960;14.836;2023-04-01T18:26:10;12.18;;;4.20;;
31724;SDS011;18306;40.960;14.836;2023-04-01T18:29:03;13.90;;;3.50;;
31724;SDS011;18306;40.960;14.836;2023-04-01T18:31:51;6.53;;;2.58;;
31724;SDS011;18306;40.960;14.836;2023-04-01T18:37:22;7.85;;;3.25;;
31724;SDS011;18306;40.960;14.836;2023-04-01T18:39:58;12.85;;;3.58;;
31724;SDS011;18306;40.960;14.836;2023-04-01T18:42:46;16.98;;;4.38;;
31724;SDS011;18306;40.960;14.836;2023-04-01T18:48:33;10.20;;;3.38;;
31724;SDS011;18306;40.960;14.836;2023-04-01T18:54:21;13.98;;;4.38;;
31724;SDS011;18306;40.960;14.836;2023-04-01T18:59:58;25.30;;;5.75;;
31724;SDS011;18306;40.960;14.836;2023-04-01T19:02:43;15.60;;;3.58;;
31724;SDS011;18306;40.960;14.836;2023-04-01T19:05:19;15.25;;;5.57;;
31724;SDS011;18306;40.960;14.836;2023-04-01T19:08:14;12.55;;;4.03;;
31724;SDS011;18306;40.960;14.836;2023-04-01T19:14:12;14.35;;;4.47;;
31724;SDS011;18306;40.960;14.836;2023-04-01T19:22:22;9.20;;;2.92;;
31724;SDS011;18306;40.960;14.836;2023-04-01T19:28:25;12.50;;;3.67;;
31724;SDS011;18306;40.960;14.836;2023-04-01T19:44:46;16.27;;;3.45;;
31724;SDS011;18306;40.960;14.836;2023-04-01T19:47:38;16.77;;;4.60;;
31724;SDS011;18306;40.960;14.836;2023-04-01T19:52:43;15.45;;;4.00;;
31724;SDS011;18306;40.960;14.836;2023-04-01T19:58:18;7.45;;;2.75;;
31724;SDS011;18306;40.960;14.836;2023-04-01T20:00:52;12.50;;;3.92;;
31724;SDS011;18306;40.960;14.836;2023-04-01T20:12:00;38.03;;;11.88;;
31724;SDS011;18306;40.960;14.836;2023-04-01T20:14:51;14.68;;;6.00;;
31724;SDS011;18306;40.960;14.836;2023-04-01T20:17:24;14.45;;;7.82;;
31724;SDS011;18306;40.960;14.836;2023-04-01T20:19:59;13.02;;;5.15;;
31724;SDS011;18306;40.960;14.836;2023-04-01T20:27:49;23.95;;;7.53;;
31724;SDS011;18306;40.960;14.836;2023-04-01T20:30:37;33.40;;;14.68;;
31724;SDS011;18306;40.960;14.836;2023-04-01T20:33:42;26.40;;;5.97;;
31724;SDS011;18306;40.960;14.836;2023-04-01T20:47:20;21.98;;;5.82;;
31724;SDS011;18306;40.960;14.836;2023-04-01T20:52:26;13.07;;;3.63;;
31724;SDS011;18306;40.960;14.836;2023-04-01T20:55:17;26.45;;;5.55;;
31724;SDS011;18306;40.960;14.836;2023-04-01T21:00:35;14.23;;;4.28;;
31724;SDS011;18306;40.960;14.836;2023-04-01T21:03:41;14.45;;;3.25;;
31724;SDS011;18306;40.960;14.836;2023-04-01T21:09:24;16.23;;;3.78;;
31724;SDS011;18306;40.960;14.836;2023-04-01T21:17:51;20.40;;;4.60;;
31724;SDS011;18306;40.960;14.836;2023-04-01T21:23:31;11.90;;;4.07;;
31724;SDS011;18306;40.960;14.836;2023-04-01T21:31:59;9.98;;;3.92;;
31724;SDS011;18306;40.960;14.836;2023-04-01T21:34:44;14.70;;;5.07;;
31724;SDS011;18306;40.960;14.836;2023-04-01T21:54:35;19.23;;;5.25;;
31724;SDS011;18306;40.960;14.836;2023-04-01T22:00:13;16.85;;;4.72;;
31724;SDS011;18306;40.960;14.836;2023-04-01T22:08:08;14.82;;;4.65;;
31724;SDS011;18306;40.960;14.836;2023-04-01T22:13:36;12.80;;;4.50;;
31724;SDS011;18306;40.960;14.836;2023-04-01T22:21:17;17.17;;;6.28;;
31724;SDS011;18306;40.960;14.836;2023-04-01T22:26:37;12.60;;;4.88;;
31724;SDS011;18306;40.960;14.836;2023-04-01T22:29:29;15.40;;;4.15;;
31724;SDS011;18306;40.960;14.836;2023-04-01T22:31:59;24.05;;;5.50;;
31724;SDS011;18306;40.960;14.836;2023-04-01T22:34:38;7.60;;;3.97;;
31724;SDS011;18306;40.960;14.836;2023-04-01T22:37:23;14.60;;;3.92;;
31724;SDS011;18306;40.960;14.836;2023-04-01T22:40:12;14.38;;;2.80;;
31724;SDS011;18306;40.960;14.836;2023-04-01T22:42:44;19.02;;;4.43;;
31724;SDS011;18306;40.960;14.836;2023-04-01T22:55:59;29.30;;;6.53;;
31724;SDS011;18306;40.960;14.836;2023-04-01T22:58:35;13.95;;;4.68;;
31724;SDS011;18306;40.960;14.836;2023-04-01T23:01:14;27.73;;;5.47;;
31724;SDS011;18306;40.960;14.836;2023-04-01T23:03:47;15.93;;;5.88;;
31724;SDS011;18306;40.960;14.836;2023-04-01T23:06:21;27.35;;;6.40;;
31724;SDS011;18306;40.960;14.836;2023-04-01T23:09:00;30.92;;;8.18;;
31724;SDS011;18306;40.960;14.836;2023-04-01T23:11:43;27.80;;;7.40;;
31724;SDS011;18306;40.960;14.836;2023-04-01T23:22:45;10.45;;;4.30;;
31724;SDS011;18306;40.960;14.836;2023-04-01T23:33:11;21.23;;;4.60;;
31724;SDS011;18306;40.960;14.836;2023-04-01T23:38:33;11.98;;;3.80;;
31724;SDS011;18306;40.960;14.836;2023-04-01T23:41:02;12.18;;;3.42;;
31724;SDS011;18306;40.960;14.836;2023-04-01T23:43:34;7.75;;;2.65;;
31724;SDS011;18306;40.960;14.836;2023-04-01T23:46:05;11.18;;;3.22;;
31724;SDS011;18306;40.960;14.836;2023-04-01T23:48:37;6.78;;;3.15;;
31724;SDS011;18306;40.960;14.836;2023-04-01T23:51:13;13.10;;;3.60;;
31724;SDS011;18306;40.960;14.836;2023-04-01T23:53:45;11.27;;;3.33;;
31724;SDS011;18306;40.960;14.836;2023-04-01T23:56:16;19.95;;;3.60;;
31724;SDS011;18306;40.960;14.836;2023-04-01T23:58:46;33.05;;;4.93;;
